sensor_id;sensor_type;location;lat;lon;timestamp;P1;durP1;ratioP1;P2;durP2;ratioP2
28353;SDS011;15603;50.878;8.036;2023-02-28T00:01:05;3.65;;;1.20;;
28353;SDS011;15603;50.878;8.036;2023-02-28T00:03:33;5.20;;;1.33;;
28353;SDS011;15603;50.878;8.036;2023-02-28T00:06:03;9.80;;;1.85;;
28353;SDS011;15603;50.878;8.036;2023-02-28T00:08:34;4.38;;;1.17;;
28353;SDS011;15603;50.878;8.036;2023-02-28T00:11:05;3.10;;;1.20;;
28353;SDS011;15603;50.878;8.036;2023-02-28T00:13:35;6.50;;;1.73;;
28353;SDS011;15603;50.878;8.036;2023-02-28T00:16:07;3.17;;;1.10;;
28353;SDS011;15603;50.878;8.036;2023-02-28T00:18:40;4.40;;;1.20;;
28353;SDS011;15603;50.878;8.036;2023-02-28T00:21:07;3.85;;;1.38;;
28353;SDS011;15603;50.878;8.036;2023-02-28T00:23:35;4.53;;;1.45;;
28353;SDS011;15603;50.878;8.036;2023-02-28T00:26:02;4.65;;;1.33;;
28353;SDS011;15603;50.878;8.036;2023-02-28T00:28:29;4.20;;;1.30;;
28353;SDS011;15603;50.878;8.036;2023-02-28T00:30:58;7.85;;;1.52;;
28353;SDS011;15603;50.878;8.036;2023-02-28T00:33:27;4.22;;;1.10;;
28353;SDS011;15603;50.878;8.036;2023-02-28T00:36:02;6.22;;;1.25;;
28353;SDS011;15603;50.878;8.036;2023-02-28T00:38:31;2.78;;;1.02;;
28353;SDS011;15603;50.878;8.036;2023-02-28T00:41:00;5.30;;;1.33;;
28353;SDS011;15603;50.878;8.036;2023-02-28T00:43:32;3.38;;;1.30;;
28353;SDS011;15603;50.878;8.036;2023-02-28T00:46:00;6.22;;;1.88;;
28353;SDS011;15603;50.878;8.036;2023-02-28T00:48:29;6.35;;;1.98;;
28353;SDS011;15603;50.878;8.036;2023-02-28T00:50:57;6.60;;;1.70;;
28353;SDS011;15603;50.878;8.036;2023-02-28T00:53:24;5.80;;;2.17;;
28353;SDS011;15603;50.878;8.036;2023-02-28T00:55:52;2.30;;;1.25;;
28353;SDS011;15603;50.878;8.036;2023-02-28T00:58:19;12.05;;;1.75;;
28353;SDS011;15603;50.878;8.036;2023-02-28T01:00:46;4.80;;;1.45;;
28353;SDS011;15603;50.878;8.036;2023-02-28T01:03:16;6.45;;;1.70;;
28353;SDS011;15603;50.878;8.036;2023-02-28T01:05:44;3.65;;;1.45;;
28353;SDS011;15603;50.878;8.036;2023-02-28T01:08:12;7.10;;;1.70;;
28353;SDS011;15603;50.878;8.036;2023-02-28T01:10:40;5.78;;;1.42;;
28353;SDS011;15603;50.878;8.036;2023-02-28T01:13:08;4.90;;;1.50;;
28353;SDS011;15603;50.878;8.036;2023-02-28T01:15:36;6.05;;;1.27;;
28353;SDS011;15603;50.878;8.036;2023-02-28T01:18:05;3.72;;;1.50;;
28353;SDS011;15603;50.878;8.036;2023-02-28T01:20:32;2.95;;;1.30;;
28353;SDS011;15603;50.878;8.036;2023-02-28T01:23:00;4.32;;;1.30;;
28353;SDS011;15603;50.878;8.036;2023-02-28T01:25:28;5.00;;;1.17;;
28353;SDS011;15603;50.878;8.036;2023-02-28T01:27:55;8.48;;;1.50;;
28353;SDS011;15603;50.878;8.036;2023-02-28T01:30:22;5.50;;;1.80;;
28353;SDS011;15603;50.878;8.036;2023-02-28T01:32:49;5.93;;;1.98;;
28353;SDS011;15603;50.878;8.036;2023-02-28T01:35:18;3.38;;;1.30;;
28353;SDS011;15603;50.878;8.036;2023-02-28T01:37:45;5.95;;;1.52;;
28353;SDS011;15603;50.878;8.036;2023-02-28T01:40:12;5.28;;;1.45;;
28353;SDS011;15603;50.878;8.036;2023-02-28T01:42:40;3.72;;;1.30;;
28353;SDS011;15603;50.878;8.036;2023-02-28T01:45:41;5.32;;;1.50;;
28353;SDS011;15603;50.878;8.036;2023-02-28T01:48:03;2.80;;;1.20;;
28353;SDS011;15603;50.878;8.036;2023-02-28T01:50:34;2.33;;;1.10;;
28353;SDS011;15603;50.878;8.036;2023-02-28T01:53:05;2.63;;;1.23;;
28353;SDS011;15603;50.878;8.036;2023-02-28T01:55:37;1.50;;;1.02;;
28353;SDS011;15603;50.878;8.036;2023-02-28T01:58:05;3.90;;;1.38;;
28353;SDS011;15603;50.878;8.036;2023-02-28T02:00:33;2.38;;;1.20;;
28353;SDS011;15603;50.878;8.036;2023-02-28T02:03:08;5.75;;;1.10;;
28353;SDS011;15603;50.878;8.036;2023-02-28T02:05:38;5.05;;;1.10;;
28353;SDS011;15603;50.878;8.036;2023-02-28T02:08:10;6.93;;;1.13;;
28353;SDS011;15603;50.878;8.036;2023-02-28T02:13:22;3.08;;;1.27;;
28353;SDS011;15603;50.878;8.036;2023-02-28T02:36:22;2.63;;;1.23;;
28353;SDS011;15603;50.878;8.036;2023-02-28T02:38:55;3.88;;;1.40;;
28353;SDS011;15603;50.878;8.036;2023-02-28T02:41:45;2.22;;;1.27;;
28353;SDS011;15603;50.878;8.036;2023-02-28T02:47:13;4.72;;;1.42;;
28353;SDS011;15603;50.878;8.036;2023-02-28T02:49:48;2.67;;;1.42;;
28353;SDS011;15603;50.878;8.036;2023-02-28T02:52:20;2.05;;;1.05;;
28353;SDS011;15603;50.878;8.036;2023-02-28T02:54:52;3.00;;;1.25;;
28353;SDS011;15603;50.878;8.036;2023-02-28T02:57:25;2.80;;;1.00;;
28353;SDS011;15603;50.878;8.036;2023-02-28T02:59:58;2.58;;;1.30;;
28353;SDS011;15603;50.878;8.036;2023-02-28T03:02:26;4.32;;;1.33;;
28353;SDS011;15603;50.878;8.036;2023-02-28T03:05:01;3.28;;;1.15;;
28353;SDS011;15603;50.878;8.036;2023-02-28T03:10:00;4.65;;;1.58;;
28353;SDS011;15603;50.878;8.036;2023-02-28T03:12:32;6.13;;;1.45;;
28353;SDS011;15603;50.878;8.036;2023-02-28T03:17:53;5.72;;;1.30;;
28353;SDS011;15603;50.878;8.036;2023-02-28T03:23:10;4.15;;;1.30;;
28353;SDS011;15603;50.878;8.036;2023-02-28T03:31:19;5.13;;;1.48;;
28353;SDS011;15603;50.878;8.036;2023-02-28T03:33:55;3.42;;;1.27;;
28353;SDS011;15603;50.878;8.036;2023-02-28T03:36:33;2.50;;;1.25;;
28353;SDS011;15603;50.878;8.036;2023-02-28T03:39:17;1.83;;;1.15;;
28353;SDS011;15603;50.878;8.036;2023-02-28T03:41:52;2.83;;;1.27;;
28353;SDS011;15603;50.878;8.036;2023-02-28T03:44:23;3.85;;;1.27;;
28353;SDS011;15603;50.878;8.036;2023-02-28T03:47:04;2.58;;;1.25;;
28353;SDS011;15603;50.878;8.036;2023-02-28T03:49:39;2.70;;;1.17;;
28353;SDS011;15603;50.878;8.036;2023-02-28T03:52:12;2.42;;;1.40;;
28353;SDS011;15603;50.878;8.036;2023-02-28T03:54:41;2.90;;;1.00;;
28353;SDS011;15603;50.878;8.036;2023-02-28T04:00:05;2.30;;;1.20;;
28353;SDS011;15603;50.878;8.036;2023-02-28T04:02:44;4.05;;;1.70;;
28353;SDS011;15603;50.878;8.036;2023-02-28T04:05:12;6.53;;;1.27;;
28353;SDS011;15603;50.878;8.036;2023-02-28T04:07:39;8.40;;;1.60;;
28353;SDS011;15603;50.878;8.036;2023-02-28T04:10:06;2.58;;;1.65;;
28353;SDS011;15603;50.878;8.036;2023-02-28T04:12:33;4.03;;;1.60;;
28353;SDS011;15603;50.878;8.036;2023-02-28T04:15:00;2.80;;;1.50;;
28353;SDS011;15603;50.878;8.036;2023-02-28T04:17:27;8.38;;;1.50;;
28353;SDS011;15603;50.878;8.036;2023-02-28T04:19:54;2.97;;;1.27;;
28353;SDS011;15603;50.878;8.036;2023-02-28T04:22:23;2.83;;;1.33;;
28353;SDS011;15603;50.878;8.036;2023-02-28T04:24:53;2.92;;;1.25;;
28353;SDS011;15603;50.878;8.036;2023-02-28T04:27:21;7.88;;;2.22;;
28353;SDS011;15603;50.878;8.036;2023-02-28T04:29:48;2.47;;;1.42;;
28353;SDS011;15603;50.878;8.036;2023-02-28T04:32:15;3.05;;;1.90;;
28353;SDS011;15603;50.878;8.036;2023-02-28T04:34:42;5.38;;;1.63;;
28353;SDS011;15603;50.878;8.036;2023-02-28T04:37:09;5.13;;;2.17;;
28353;SDS011;15603;50.878;8.036;2023-02-28T04:39:40;8.52;;;2.80;;
28353;SDS011;15603;50.878;8.036;2023-02-28T04:42:08;8.50;;;2.03;;
28353;SDS011;15603;50.878;8.036;2023-02-28T04:44:36;4.45;;;1.75;;
28353;SDS011;15603;50.878;8.036;2023-02-28T04:47:03;4.88;;;1.70;;
28353;SDS011;15603;50.878;8.036;2023-02-28T04:49:30;4.95;;;2.00;;
28353;SDS011;15603;50.878;8.036;2023-02-28T04:51:58;4.30;;;2.10;;
28353;SDS011;15603;50.878;8.036;2023-02-28T04:54:25;2.05;;;1.48;;
28353;SDS011;15603;50.878;8.036;2023-02-28T04:56:52;7.10;;;1.95;;
28353;SDS011;15603;50.878;8.036;2023-02-28T04:59:19;4.00;;;1.98;;
28353;SDS011;15603;50.878;8.036;2023-02-28T05:01:46;8.75;;;2.03;;
28353;SDS011;15603;50.878;8.036;2023-02-28T05:04:14;4.50;;;1.50;;
28353;SDS011;15603;50.878;8.036;2023-02-28T05:06:42;2.50;;;1.77;;
28353;SDS011;15603;50.878;8.036;2023-02-28T05:09:09;3.60;;;1.88;;
28353;SDS011;15603;50.878;8.036;2023-02-28T05:11:38;3.28;;;1.90;;
28353;SDS011;15603;50.878;8.036;2023-02-28T05:14:08;6.38;;;1.92;;
28353;SDS011;15603;50.878;8.036;2023-02-28T05:16:37;3.97;;;1.77;;
28353;SDS011;15603;50.878;8.036;2023-02-28T05:19:05;3.17;;;1.88;;
28353;SDS011;15603;50.878;8.036;2023-02-28T05:21:34;4.35;;;1.75;;
28353;SDS011;15603;50.878;8.036;2023-02-28T05:24:11;7.95;;;1.90;;
28353;SDS011;15603;50.878;8.036;2023-02-28T05:26:39;7.18;;;2.03;;
28353;SDS011;15603;50.878;8.036;2023-02-28T05:29:08;4.72;;;1.42;;
28353;SDS011;15603;50.878;8.036;2023-02-28T05:31:36;3.47;;;1.70;;
28353;SDS011;15603;50.878;8.036;2023-02-28T05:34:03;10.38;;;1.95;;
28353;SDS011;15603;50.878;8.036;2023-02-28T05:36:31;4.30;;;2.00;;
28353;SDS011;15603;50.878;8.036;2023-02-28T05:38:58;2.90;;;1.95;;
28353;SDS011;15603;50.878;8.036;2023-02-28T05:41:26;3.28;;;2.13;;
28353;SDS011;15603;50.878;8.036;2023-02-28T05:43:54;4.35;;;1.80;;
28353;SDS011;15603;50.878;8.036;2023-02-28T05:46:21;9.20;;;2.10;;
28353;SDS011;15603;50.878;8.036;2023-02-28T05:48:48;4.30;;;2.13;;
28353;SDS011;15603;50.878;8.036;2023-02-28T05:51:16;3.15;;;1.90;;
28353;SDS011;15603;50.878;8.036;2023-02-28T05:53:43;7.05;;;3.05;;
28353;SDS011;15603;50.878;8.036;2023-02-28T05:56:11;9.43;;;2.72;;
28353;SDS011;15603;50.878;8.036;2023-02-28T05:58:38;9.65;;;3.33;;
28353;SDS011;15603;50.878;8.036;2023-02-28T06:01:22;7.85;;;3.53;;
28353;SDS011;15603;50.878;8.036;2023-02-28T06:04:07;6.63;;;3.08;;
28353;SDS011;15603;50.878;8.036;2023-02-28T06:06:48;6.93;;;2.88;;
28353;SDS011;15603;50.878;8.036;2023-02-28T06:09:16;9.00;;;3.45;;
28353;SDS011;15603;50.878;8.036;2023-02-28T06:11:44;6.07;;;2.47;;
28353;SDS011;15603;50.878;8.036;2023-02-28T06:14:15;6.25;;;2.55;;
28353;SDS011;15603;50.878;8.036;2023-02-28T06:16:44;7.70;;;2.88;;
28353;SDS011;15603;50.878;8.036;2023-02-28T06:19:11;6.63;;;2.88;;
28353;SDS011;15603;50.878;8.036;2023-02-28T06:21:39;11.90;;;3.55;;
28353;SDS011;15603;50.878;8.036;2023-02-28T06:24:06;11.32;;;3.58;;
28353;SDS011;15603;50.878;8.036;2023-02-28T06:26:34;17.50;;;4.93;;
28353;SDS011;15603;50.878;8.036;2023-02-28T06:29:01;19.73;;;4.85;;
28353;SDS011;15603;50.878;8.036;2023-02-28T06:31:28;11.00;;;3.90;;
28353;SDS011;15603;50.878;8.036;2023-02-28T06:33:56;12.50;;;4.40;;
28353;SDS011;15603;50.878;8.036;2023-02-28T06:36:23;13.27;;;3.95;;
28353;SDS011;15603;50.878;8.036;2023-02-28T06:38:50;14.07;;;4.15;;
28353;SDS011;15603;50.878;8.036;2023-02-28T06:41:22;15.10;;;5.25;;
28353;SDS011;15603;50.878;8.036;2023-02-28T06:43:50;15.10;;;6.30;;
28353;SDS011;15603;50.878;8.036;2023-02-28T06:46:18;13.77;;;4.50;;
28353;SDS011;15603;50.878;8.036;2023-02-28T06:48:46;9.55;;;3.92;;
28353;SDS011;15603;50.878;8.036;2023-02-28T06:51:14;14.40;;;5.03;;
28353;SDS011;15603;50.878;8.036;2023-02-28T06:53:43;6.53;;;3.33;;
28353;SDS011;15603;50.878;8.036;2023-02-28T06:56:11;12.23;;;4.40;;
28353;SDS011;15603;50.878;8.036;2023-02-28T06:58:41;14.38;;;4.35;;
28353;SDS011;15603;50.878;8.036;2023-02-28T07:01:08;14.63;;;5.40;;
28353;SDS011;15603;50.878;8.036;2023-02-28T07:03:35;22.33;;;5.95;;
28353;SDS011;15603;50.878;8.036;2023-02-28T07:06:04;27.17;;;6.05;;
28353;SDS011;15603;50.878;8.036;2023-02-28T07:08:32;37.63;;;7.50;;
28353;SDS011;15603;50.878;8.036;2023-02-28T07:11:00;13.60;;;5.00;;
28353;SDS011;15603;50.878;8.036;2023-02-28T07:13:26;8.35;;;3.00;;
28353;SDS011;15603;50.878;8.036;2023-02-28T07:16:01;10.23;;;3.28;;
28353;SDS011;15603;50.878;8.036;2023-02-28T07:18:31;4.97;;;1.98;;
28353;SDS011;15603;50.878;8.036;2023-02-28T07:21:01;5.22;;;1.80;;
28353;SDS011;15603;50.878;8.036;2023-02-28T07:23:29;2.88;;;0.77;;
28353;SDS011;15603;50.878;8.036;2023-02-28T07:25:56;4.78;;;1.73;;
28353;SDS011;15603;50.878;8.036;2023-02-28T07:28:24;3.72;;;1.48;;
28353;SDS011;15603;50.878;8.036;2023-02-28T07:30:51;8.25;;;1.50;;
28353;SDS011;15603;50.878;8.036;2023-02-28T07:33:18;2.97;;;0.80;;
28353;SDS011;15603;50.878;8.036;2023-02-28T07:35:45;4.65;;;1.23;;
28353;SDS011;15603;50.878;8.036;2023-02-28T07:38:13;8.43;;;1.05;;
28353;SDS011;15603;50.878;8.036;2023-02-28T07:40:40;2.08;;;0.98;;
28353;SDS011;15603;50.878;8.036;2023-02-28T07:43:07;0.90;;;0.63;;
28353;SDS011;15603;50.878;8.036;2023-02-28T07:45:34;5.20;;;1.00;;
28353;SDS011;15603;50.878;8.036;2023-02-28T07:48:01;6.10;;;0.75;;
28353;SDS011;15603;50.878;8.036;2023-02-28T07:50:29;8.65;;;0.82;;
28353;SDS011;15603;50.878;8.036;2023-02-28T07:53:00;3.97;;;1.17;;
28353;SDS011;15603;50.878;8.036;2023-02-28T07:55:27;2.30;;;0.50;;
28353;SDS011;15603;50.878;8.036;2023-02-28T07:57:54;2.70;;;0.77;;
28353;SDS011;15603;50.878;8.036;2023-02-28T08:00:23;2.03;;;0.75;;
28353;SDS011;15603;50.878;8.036;2023-02-28T08:02:51;5.25;;;0.85;;
28353;SDS011;15603;50.878;8.036;2023-02-28T08:05:18;3.83;;;1.08;;
28353;SDS011;15603;50.878;8.036;2023-02-28T08:07:49;3.55;;;1.00;;
28353;SDS011;15603;50.878;8.036;2023-02-28T08:10:16;0.80;;;0.40;;
28353;SDS011;15603;50.878;8.036;2023-02-28T08:12:43;3.08;;;0.70;;
28353;SDS011;15603;50.878;8.036;2023-02-28T08:15:10;3.22;;;0.93;;
28353;SDS011;15603;50.878;8.036;2023-02-28T08:17:38;3.08;;;0.70;;
28353;SDS011;15603;50.878;8.036;2023-02-28T08:20:05;3.83;;;0.70;;
28353;SDS011;15603;50.878;8.036;2023-02-28T08:22:33;2.15;;;1.20;;
28353;SDS011;15603;50.878;8.036;2023-02-28T08:25:00;4.97;;;1.08;;
28353;SDS011;15603;50.878;8.036;2023-02-28T08:27:27;2.10;;;0.63;;
28353;SDS011;15603;50.878;8.036;2023-02-28T08:29:54;1.95;;;0.80;;
28353;SDS011;15603;50.878;8.036;2023-02-28T08:32:21;2.05;;;0.60;;
28353;SDS011;15603;50.878;8.036;2023-02-28T08:34:56;2.10;;;1.17;;
28353;SDS011;15603;50.878;8.036;2023-02-28T08:37:23;5.35;;;0.68;;
28353;SDS011;15603;50.878;8.036;2023-02-28T08:39:51;3.03;;;1.08;;
28353;SDS011;15603;50.878;8.036;2023-02-28T08:42:22;4.35;;;1.02;;
28353;SDS011;15603;50.878;8.036;2023-02-28T08:44:50;2.15;;;0.75;;
28353;SDS011;15603;50.878;8.036;2023-02-28T08:47:17;1.42;;;0.40;;
28353;SDS011;15603;50.878;8.036;2023-02-28T08:49:44;10.95;;;1.15;;
28353;SDS011;15603;50.878;8.036;2023-02-28T08:52:11;8.50;;;1.23;;
28353;SDS011;15603;50.878;8.036;2023-02-28T08:54:38;5.05;;;0.77;;
28353;SDS011;15603;50.878;8.036;2023-02-28T08:57:05;3.53;;;0.98;;
28353;SDS011;15603;50.878;8.036;2023-02-28T08:59:32;4.43;;;0.68;;
28353;SDS011;15603;50.878;8.036;2023-02-28T09:02:00;2.58;;;0.60;;
28353;SDS011;15603;50.878;8.036;2023-02-28T09:04:27;1.95;;;0.57;;
28353;SDS011;15603;50.878;8.036;2023-02-28T09:06:57;9.05;;;0.82;;
28353;SDS011;15603;50.878;8.036;2023-02-28T09:09:24;6.18;;;0.88;;
28353;SDS011;15603;50.878;8.036;2023-02-28T09:11:51;9.13;;;1.40;;
28353;SDS011;15603;50.878;8.036;2023-02-28T09:14:18;4.07;;;1.00;;
28353;SDS011;15603;50.878;8.036;2023-02-28T09:16:46;8.52;;;0.73;;
28353;SDS011;15603;50.878;8.036;2023-02-28T09:19:14;2.35;;;0.73;;
28353;SDS011;15603;50.878;8.036;2023-02-28T09:21:41;0.93;;;0.50;;
28353;SDS011;15603;50.878;8.036;2023-02-28T09:24:08;2.38;;;0.93;;
28353;SDS011;15603;50.878;8.036;2023-02-28T09:26:35;4.82;;;0.88;;
28353;SDS011;15603;50.878;8.036;2023-02-28T09:29:13;5.63;;;1.08;;
28353;SDS011;15603;50.878;8.036;2023-02-28T09:31:41;3.28;;;0.80;;
28353;SDS011;15603;50.878;8.036;2023-02-28T09:34:08;3.90;;;1.15;;
28353;SDS011;15603;50.878;8.036;2023-02-28T09:36:35;2.13;;;0.80;;
28353;SDS011;15603;50.878;8.036;2023-02-28T09:39:11;3.10;;;1.10;;
28353;SDS011;15603;50.878;8.036;2023-02-28T09:41:42;3.00;;;1.35;;
28353;SDS011;15603;50.878;8.036;2023-02-28T09:44:40;5.43;;;1.23;;
28353;SDS011;15603;50.878;8.036;2023-02-28T09:47:18;5.55;;;0.93;;
28353;SDS011;15603;50.878;8.036;2023-02-28T09:49:58;6.95;;;1.15;;
28353;SDS011;15603;50.878;8.036;2023-02-28T09:52:38;1.63;;;0.73;;
28353;SDS011;15603;50.878;8.036;2023-02-28T09:57:41;2.33;;;0.85;;
28353;SDS011;15603;50.878;8.036;2023-02-28T10:05:29;6.43;;;1.42;;
28353;SDS011;15603;50.878;8.036;2023-02-28T10:10:42;2.97;;;0.77;;
28353;SDS011;15603;50.878;8.036;2023-02-28T10:16:05;2.80;;;1.30;;
28353;SDS011;15603;50.878;8.036;2023-02-28T10:18:50;6.00;;;1.33;;
28353;SDS011;15603;50.878;8.036;2023-02-28T10:21:23;4.50;;;1.58;;
28353;SDS011;15603;50.878;8.036;2023-02-28T10:23:58;2.60;;;1.00;;
28353;SDS011;15603;50.878;8.036;2023-02-28T10:26:31;3.72;;;1.00;;
28353;SDS011;15603;50.878;8.036;2023-02-28T10:29:00;2.40;;;1.00;;
28353;SDS011;15603;50.878;8.036;2023-02-28T10:31:29;7.22;;;1.67;;
28353;SDS011;15603;50.878;8.036;2023-02-28T10:33:56;13.52;;;1.10;;
28353;SDS011;15603;50.878;8.036;2023-02-28T10:36:23;1.73;;;0.73;;
28353;SDS011;15603;50.878;8.036;2023-02-28T10:38:50;3.80;;;1.45;;
28353;SDS011;15603;50.878;8.036;2023-02-28T10:41:30;9.68;;;1.80;;
28353;SDS011;15603;50.878;8.036;2023-02-28T10:44:12;7.00;;;1.35;;
28353;SDS011;15603;50.878;8.036;2023-02-28T10:46:40;6.32;;;1.65;;
28353;SDS011;15603;50.878;8.036;2023-02-28T10:49:13;3.95;;;1.50;;
28353;SDS011;15603;50.878;8.036;2023-02-28T10:51:47;3.38;;;1.05;;
28353;SDS011;15603;50.878;8.036;2023-02-28T10:54:19;2.75;;;1.20;;
28353;SDS011;15603;50.878;8.036;2023-02-28T10:57:32;4.20;;;1.45;;
28353;SDS011;15603;50.878;8.036;2023-02-28T11:02:30;4.38;;;1.45;;
28353;SDS011;15603;50.878;8.036;2023-02-28T11:05:02;2.70;;;1.20;;
28353;SDS011;15603;50.878;8.036;2023-02-28T11:07:54;2.15;;;1.00;;
28353;SDS011;15603;50.878;8.036;2023-02-28T11:10:24;2.88;;;1.05;;
28353;SDS011;15603;50.878;8.036;2023-02-28T11:12:56;4.43;;;1.58;;
28353;SDS011;15603;50.878;8.036;2023-02-28T11:15:27;4.95;;;1.58;;
28353;SDS011;15603;50.878;8.036;2023-02-28T11:20:30;15.32;;;1.33;;
28353;SDS011;15603;50.878;8.036;2023-02-28T11:23:00;17.98;;;1.55;;
28353;SDS011;15603;50.878;8.036;2023-02-28T11:25:31;6.78;;;1.38;;
28353;SDS011;15603;50.878;8.036;2023-02-28T11:28:04;5.80;;;1.40;;
28353;SDS011;15603;50.878;8.036;2023-02-28T11:36:18;3.47;;;1.88;;
28353;SDS011;15603;50.878;8.036;2023-02-28T11:38:47;4.97;;;1.58;;
28353;SDS011;15603;50.878;8.036;2023-02-28T11:51:47;3.75;;;1.58;;
28353;SDS011;15603;50.878;8.036;2023-02-28T11:54:23;1.77;;;1.27;;
28353;SDS011;15603;50.878;8.036;2023-02-28T11:56:52;4.47;;;1.63;;
28353;SDS011;15603;50.878;8.036;2023-02-28T12:10:29;4.50;;;1.90;;
28353;SDS011;15603;50.878;8.036;2023-02-28T12:21:56;2.97;;;1.70;;
28353;SDS011;15603;50.878;8.036;2023-02-28T12:27:17;7.30;;;1.60;;
28353;SDS011;15603;50.878;8.036;2023-02-28T12:32:33;12.65;;;2.00;;
28353;SDS011;15603;50.878;8.036;2023-02-28T12:38:10;3.22;;;1.98;;
28353;SDS011;15603;50.878;8.036;2023-02-28T12:44:01;4.13;;;1.75;;
28353;SDS011;15603;50.878;8.036;2023-02-28T12:46:36;5.95;;;2.00;;
28353;SDS011;15603;50.878;8.036;2023-02-28T12:49:10;6.00;;;2.30;;
28353;SDS011;15603;50.878;8.036;2023-02-28T12:51:43;6.55;;;2.13;;
28353;SDS011;15603;50.878;8.036;2023-02-28T12:57:18;3.30;;;1.52;;
28353;SDS011;15603;50.878;8.036;2023-02-28T12:59:56;2.70;;;1.85;;
28353;SDS011;15603;50.878;8.036;2023-02-28T13:02:33;4.10;;;1.95;;
28353;SDS011;15603;50.878;8.036;2023-02-28T13:10:46;19.15;;;2.42;;
28353;SDS011;15603;50.878;8.036;2023-02-28T13:13:21;4.60;;;1.83;;
28353;SDS011;15603;50.878;8.036;2023-02-28T13:16:04;7.10;;;2.45;;
28353;SDS011;15603;50.878;8.036;2023-02-28T13:18:38;2.55;;;1.80;;
28353;SDS011;15603;50.878;8.036;2023-02-28T13:21:09;3.88;;;2.00;;
28353;SDS011;15603;50.878;8.036;2023-02-28T13:23:59;6.47;;;2.50;;
28353;SDS011;15603;50.878;8.036;2023-02-28T13:28:59;4.65;;;2.08;;
28353;SDS011;15603;50.878;8.036;2023-02-28T13:31:28;3.33;;;1.70;;
28353;SDS011;15603;50.878;8.036;2023-02-28T13:36:30;8.35;;;2.40;;
28353;SDS011;15603;50.878;8.036;2023-02-28T13:38:59;4.57;;;2.28;;
28353;SDS011;15603;50.878;8.036;2023-02-28T13:41:49;6.78;;;2.20;;
28353;SDS011;15603;50.878;8.036;2023-02-28T13:51:50;9.32;;;2.85;;
28353;SDS011;15603;50.878;8.036;2023-02-28T13:54:22;9.00;;;2.63;;
28353;SDS011;15603;50.878;8.036;2023-02-28T14:05:06;7.82;;;1.80;;
28353;SDS011;15603;50.878;8.036;2023-02-28T14:07:50;4.32;;;1.70;;
28353;SDS011;15603;50.878;8.036;2023-02-28T14:10:22;5.45;;;2.50;;
28353;SDS011;15603;50.878;8.036;2023-02-28T14:20:51;6.10;;;2.33;;
28353;SDS011;15603;50.878;8.036;2023-02-28T14:26:13;5.93;;;2.30;;
28353;SDS011;15603;50.878;8.036;2023-02-28T14:31:15;3.47;;;2.00;;
28353;SDS011;15603;50.878;8.036;2023-02-28T14:36:46;6.60;;;1.75;;
28353;SDS011;15603;50.878;8.036;2023-02-28T14:39:15;4.32;;;2.03;;
28353;SDS011;15603;50.878;8.036;2023-02-28T14:41:45;3.85;;;2.00;;
28353;SDS011;15603;50.878;8.036;2023-02-28T14:44:14;5.15;;;2.15;;
28353;SDS011;15603;50.878;8.036;2023-02-28T14:46:50;10.30;;;2.45;;
28353;SDS011;15603;50.878;8.036;2023-02-28T14:49:23;5.72;;;2.03;;
28353;SDS011;15603;50.878;8.036;2023-02-28T14:52:11;7.10;;;2.05;;
28353;SDS011;15603;50.878;8.036;2023-02-28T14:54:42;4.68;;;1.90;;
28353;SDS011;15603;50.878;8.036;2023-02-28T14:57:27;4.63;;;2.08;;
28353;SDS011;15603;50.878;8.036;2023-02-28T15:14:01;9.73;;;3.30;;
28353;SDS011;15603;50.878;8.036;2023-02-28T15:16:33;6.80;;;2.72;;
28353;SDS011;15603;50.878;8.036;2023-02-28T15:19:02;6.78;;;2.58;;
28353;SDS011;15603;50.878;8.036;2023-02-28T15:29:00;6.05;;;2.45;;
28353;SDS011;15603;50.878;8.036;2023-02-28T15:31:32;6.82;;;2.90;;
28353;SDS011;15603;50.878;8.036;2023-02-28T15:34:36;6.57;;;2.58;;
28353;SDS011;15603;50.878;8.036;2023-02-28T15:40:36;5.63;;;2.35;;
28353;SDS011;15603;50.878;8.036;2023-02-28T15:43:12;3.10;;;2.00;;
28353;SDS011;15603;50.878;8.036;2023-02-28T15:48:20;8.88;;;2.17;;
28353;SDS011;15603;50.878;8.036;2023-02-28T15:50:49;4.75;;;2.45;;
28353;SDS011;15603;50.878;8.036;2023-02-28T15:53:30;6.10;;;2.42;;
28353;SDS011;15603;50.878;8.036;2023-02-28T15:56:01;3.95;;;2.05;;
28353;SDS011;15603;50.878;8.036;2023-02-28T15:58:31;6.85;;;2.03;;
28353;SDS011;15603;50.878;8.036;2023-02-28T16:03:53;7.90;;;3.30;;
28353;SDS011;15603;50.878;8.036;2023-02-28T16:08:58;6.50;;;2.05;;
28353;SDS011;15603;50.878;8.036;2023-02-28T16:11:25;5.15;;;2.60;;
28353;SDS011;15603;50.878;8.036;2023-02-28T16:13:53;17.95;;;2.40;;
28353;SDS011;15603;50.878;8.036;2023-02-28T16:16:22;6.97;;;2.17;;
28353;SDS011;15603;50.878;8.036;2023-02-28T16:18:51;11.75;;;2.67;;
28353;SDS011;15603;50.878;8.036;2023-02-28T16:21:19;5.45;;;2.08;;
28353;SDS011;15603;50.878;8.036;2023-02-28T16:23:46;5.63;;;1.92;;
28353;SDS011;15603;50.878;8.036;2023-02-28T16:26:18;7.22;;;2.65;;
28353;SDS011;15603;50.878;8.036;2023-02-28T16:28:48;7.22;;;2.53;;
28353;SDS011;15603;50.878;8.036;2023-02-28T16:31:16;5.32;;;2.20;;
28353;SDS011;15603;50.878;8.036;2023-02-28T16:33:44;6.10;;;2.28;;
28353;SDS011;15603;50.878;8.036;2023-02-28T16:36:19;5.53;;;2.42;;
28353;SDS011;15603;50.878;8.036;2023-02-28T16:38:47;4.05;;;1.95;;
28353;SDS011;15603;50.878;8.036;2023-02-28T16:41:17;13.13;;;1.90;;
28353;SDS011;15603;50.878;8.036;2023-02-28T16:46:15;7.65;;;2.38;;
28353;SDS011;15603;50.878;8.036;2023-02-28T16:48:44;7.38;;;2.67;;
28353;SDS011;15603;50.878;8.036;2023-02-28T16:51:12;5.80;;;2.25;;
28353;SDS011;15603;50.878;8.036;2023-02-28T16:53:40;4.05;;;2.50;;
28353;SDS011;15603;50.878;8.036;2023-02-28T16:56:21;6.15;;;2.30;;
28353;SDS011;15603;50.878;8.036;2023-02-28T16:58:50;8.27;;;2.70;;
28353;SDS011;15603;50.878;8.036;2023-02-28T17:05:06;8.05;;;2.60;;
28353;SDS011;15603;50.878;8.036;2023-02-28T17:07:43;8.65;;;3.00;;
28353;SDS011;15603;50.878;8.036;2023-02-28T17:10:15;7.38;;;3.20;;
28353;SDS011;15603;50.878;8.036;2023-02-28T17:12:50;11.48;;;3.05;;
28353;SDS011;15603;50.878;8.036;2023-02-28T17:18:24;7.25;;;3.67;;
28353;SDS011;15603;50.878;8.036;2023-02-28T17:20:51;12.80;;;3.88;;
28353;SDS011;15603;50.878;8.036;2023-02-28T17:23:18;17.25;;;4.68;;
28353;SDS011;15603;50.878;8.036;2023-02-28T17:25:47;15.80;;;5.97;;
28353;SDS011;15603;50.878;8.036;2023-02-28T17:28:27;14.18;;;4.88;;
28353;SDS011;15603;50.878;8.036;2023-02-28T17:33:25;11.80;;;4.57;;
28353;SDS011;15603;50.878;8.036;2023-02-28T17:35:55;8.63;;;4.30;;
28353;SDS011;15603;50.878;8.036;2023-02-28T17:38:26;12.10;;;4.55;;
28353;SDS011;15603;50.878;8.036;2023-02-28T17:40:53;13.27;;;5.03;;
28353;SDS011;15603;50.878;8.036;2023-02-28T17:43:24;20.25;;;5.53;;
28353;SDS011;15603;50.878;8.036;2023-02-28T17:45:53;14.98;;;4.68;;
28353;SDS011;15603;50.878;8.036;2023-02-28T17:48:20;13.00;;;4.38;;
28353;SDS011;15603;50.878;8.036;2023-02-28T17:50:47;29.17;;;5.93;;
28353;SDS011;15603;50.878;8.036;2023-02-28T17:53:14;13.05;;;3.45;;
28353;SDS011;15603;50.878;8.036;2023-02-28T17:55:42;7.78;;;2.92;;
28353;SDS011;15603;50.878;8.036;2023-02-28T18:01:12;9.18;;;3.33;;
28353;SDS011;15603;50.878;8.036;2023-02-28T18:03:59;6.18;;;3.10;;
28353;SDS011;15603;50.878;8.036;2023-02-28T18:06:36;11.57;;;3.70;;
28353;SDS011;15603;50.878;8.036;2023-02-28T18:09:14;7.28;;;3.20;;
28353;SDS011;15603;50.878;8.036;2023-02-28T18:11:42;10.57;;;3.83;;
28353;SDS011;15603;50.878;8.036;2023-02-28T18:14:15;12.70;;;4.63;;
28353;SDS011;15603;50.878;8.036;2023-02-28T18:16:43;11.68;;;3.67;;
28353;SDS011;15603;50.878;8.036;2023-02-28T18:19:12;13.20;;;3.70;;
28353;SDS011;15603;50.878;8.036;2023-02-28T18:21:43;11.32;;;3.97;;
28353;SDS011;15603;50.878;8.036;2023-02-28T18:24:12;12.25;;;4.43;;
28353;SDS011;15603;50.878;8.036;2023-02-28T18:26:39;17.63;;;6.60;;
28353;SDS011;15603;50.878;8.036;2023-02-28T18:29:07;16.27;;;6.85;;